createdAt,value
2023-05-03T00:01:44.079Z,2.42
2023-05-03T00:04:11.071Z,2.33
2023-05-03T00:06:37.794Z,1.75
2023-05-03T00:09:04.893Z,2.15
2023-05-03T00:11:31.656Z,2.03
2023-05-03T00:13:58.360Z,2.35
2023-05-03T00:16:25.313Z,2.35
2023-05-03T00:18:52.025Z,2.17
2023-05-03T00:21:19.133Z,1.85
2023-05-03T00:23:46.019Z,1.90
2023-05-03T00:26:12.725Z,2.00
2023-05-03T00:28:39.523Z,2.17
2023-05-03T00:31:10.718Z,1.75
2023-05-03T00:33:38.213Z,2.38
2023-05-03T00:36:12.806Z,2.42
2023-05-03T00:38:40.593Z,2.15
2023-05-03T00:41:09.215Z,2.13
2023-05-03T00:43:37.874Z,2.05
2023-05-03T00:46:15.890Z,2.10
2023-05-03T00:48:43.999Z,1.90
2023-05-03T00:51:14.276Z,1.83
2023-05-03T00:53:42.667Z,2.58
2023-05-03T00:56:09.828Z,2.30
2023-05-03T00:58:40.040Z,2.53
2023-05-03T01:01:07.683Z,2.10
2023-05-03T01:03:36.613Z,2.75
2023-05-03T01:06:13.619Z,2.70
2023-05-03T01:09:05.136Z,2.17
2023-05-03T01:12:16.899Z,2.17
2023-05-03T01:14:53.485Z,2.70
2023-05-03T01:17:27.119Z,1.98
2023-05-03T01:20:14.098Z,1.80
2023-05-03T01:22:56.276Z,2.42
2023-05-03T01:25:23.109Z,2.42
2023-05-03T01:27:50.172Z,2.53
2023-05-03T01:30:17.234Z,2.38
2023-05-03T01:33:13.570Z,2.33
2023-05-03T01:36:11.674Z,1.70
2023-05-03T01:38:38.711Z,2.35
2023-05-03T01:41:10.354Z,2.42
2023-05-03T01:43:38.580Z,2.03
2023-05-03T01:46:05.627Z,2.20
2023-05-03T01:48:32.519Z,1.88
2023-05-03T01:50:59.253Z,2.33
2023-05-03T01:53:26.117Z,1.85
2023-05-03T01:55:52.904Z,2.33
2023-05-03T01:58:19.648Z,2.47
2023-05-03T02:00:46.865Z,2.05
2023-05-03T02:03:13.816Z,2.75
2023-05-03T02:05:41.425Z,2.53
2023-05-03T02:08:08.378Z,2.35
2023-05-03T02:10:35.138Z,2.72
2023-05-03T02:13:01.820Z,2.70
2023-05-03T02:15:28.550Z,3.20
2023-05-03T02:17:55.696Z,2.58
2023-05-03T02:20:22.680Z,3.08
2023-05-03T02:22:49.525Z,2.80
2023-05-03T02:25:16.439Z,2.38
2023-05-03T02:27:43.204Z,3.05
2023-05-03T02:30:10.426Z,2.80
2023-05-03T02:32:37.198Z,2.88
2023-05-03T02:35:04.261Z,2.35
2023-05-03T02:37:31.024Z,2.85
2023-05-03T02:39:58.043Z,1.77
2023-05-03T02:42:24.763Z,2.28
2023-05-03T02:44:51.518Z,2.25
2023-05-03T02:47:18.722Z,2.50
2023-05-03T02:49:45.477Z,2.20
2023-05-03T02:52:12.226Z,2.30
2023-05-03T02:54:38.970Z,2.80
2023-05-03T02:57:06.077Z,2.50
2023-05-03T02:59:32.993Z,2.70
2023-05-03T03:01:59.792Z,2.35
2023-05-03T03:04:26.547Z,2.42
2023-05-03T03:06:56.853Z,2.42
2023-05-03T03:09:23.739Z,2.60
2023-05-03T03:11:53.767Z,1.98
2023-05-03T03:14:20.542Z,2.70
2023-05-03T03:16:47.325Z,2.33
2023-05-03T03:19:14.050Z,2.42
2023-05-03T03:21:40.784Z,2.28
2023-05-03T03:24:07.680Z,2.15
2023-05-03T03:26:34.356Z,3.50
2023-05-03T03:29:01.209Z,2.47
2023-05-03T03:31:27.970Z,1.92
2023-05-03T03:33:54.772Z,2.25
2023-05-03T03:36:21.564Z,2.53
2023-05-03T03:38:48.369Z,2.67
2023-05-03T03:41:15.194Z,3.10
2023-05-03T03:43:41.995Z,2.47
2023-05-03T03:46:08.781Z,2.88
2023-05-03T03:48:35.613Z,2.05
2023-05-03T03:51:02.560Z,1.85
2023-05-03T03:53:29.310Z,2.67
2023-05-03T03:55:56.437Z,2.60
2023-05-03T03:58:23.130Z,2.20
2023-05-03T04:00:50.537Z,2.53
2023-05-03T04:03:17.683Z,2.35
2023-05-03T04:05:44.431Z,2.63
2023-05-03T04:08:11.242Z,2.33
2023-05-03T04:10:38.008Z,1.88
2023-05-03T04:13:04.817Z,2.38
2023-05-03T04:15:31.538Z,2.10
2023-05-03T04:17:59.698Z,2.40
2023-05-03T04:20:26.992Z,2.38
2023-05-03T04:22:53.783Z,2.08
2023-05-03T04:25:20.576Z,2.25
2023-05-03T04:27:48.168Z,2.08
2023-05-03T04:30:15.561Z,2.25
2023-05-03T04:32:42.920Z,1.95
2023-05-03T04:35:12.618Z,3.03
2023-05-03T04:37:40.819Z,1.70
2023-05-03T04:40:09.681Z,2.40
2023-05-03T04:42:36.569Z,2.60
2023-05-03T04:45:03.830Z,2.17
2023-05-03T04:47:30.837Z,2.03
2023-05-03T04:49:57.643Z,2.10
2023-05-03T04:52:25.505Z,2.15
2023-05-03T04:54:52.662Z,2.40
2023-05-03T04:57:19.403Z,2.15
2023-05-03T04:59:46.186Z,1.90
2023-05-03T05:02:12.981Z,1.65
2023-05-03T05:04:39.986Z,1.98
2023-05-03T05:07:06.793Z,2.03
2023-05-03T05:09:33.620Z,1.98
2023-05-03T05:12:00.434Z,2.45
2023-05-03T05:14:28.398Z,1.42
2023-05-03T05:16:55.436Z,2.70
2023-05-03T05:19:22.194Z,2.38
2023-05-03T05:21:48.937Z,1.55
2023-05-03T05:24:15.655Z,1.90
2023-05-03T05:26:43.238Z,1.88
2023-05-03T05:29:10.269Z,1.77
2023-05-03T05:31:37.298Z,2.17
2023-05-03T05:34:04.212Z,1.40
2023-05-03T05:36:31.400Z,1.75
2023-05-03T05:38:58.189Z,1.70
2023-05-03T05:41:25.138Z,1.65
2023-05-03T05:43:52.013Z,1.92
2023-05-03T05:46:21.520Z,2.20
2023-05-03T05:48:48.574Z,1.60
2023-05-03T05:51:15.344Z,1.80
2023-05-03T05:53:42.118Z,1.75
2023-05-03T05:56:09.152Z,1.85
2023-05-03T05:58:37.460Z,1.35
2023-05-03T06:01:05.580Z,1.33
2023-05-03T06:03:33.727Z,1.23
2023-05-03T06:06:01.046Z,1.45
2023-05-03T06:08:28.151Z,1.27
2023-05-03T06:10:55.040Z,2.00
2023-05-03T06:13:22.485Z,1.20
2023-05-03T06:15:49.691Z,1.55
2023-05-03T06:18:16.891Z,1.80
2023-05-03T06:20:43.852Z,1.75
2023-05-03T06:23:10.922Z,1.27
2023-05-03T06:25:37.677Z,1.42
2023-05-03T06:28:04.773Z,1.83
2023-05-03T06:30:31.655Z,1.40
2023-05-03T06:32:58.507Z,1.33
2023-05-03T06:35:25.373Z,1.42
2023-05-03T06:37:52.431Z,2.00
2023-05-03T06:40:19.176Z,1.70
2023-05-03T06:42:46.350Z,1.20
2023-05-03T06:45:13.140Z,1.52
2023-05-03T06:47:42.458Z,1.15
2023-05-03T06:50:10.498Z,1.40
2023-05-03T06:52:37.453Z,1.40
2023-05-03T06:55:04.902Z,1.10
2023-05-03T06:57:32.206Z,1.02
2023-05-03T06:59:59.368Z,1.10
2023-05-03T07:02:26.852Z,1.60
2023-05-03T07:04:54.019Z,2.75
2023-05-03T07:07:21.080Z,1.70
2023-05-03T07:09:48.542Z,1.40
2023-05-03T07:12:16.492Z,1.17
2023-05-03T07:14:43.619Z,1.10
2023-05-03T07:17:10.627Z,1.13
2023-05-03T07:19:38.578Z,1.45
2023-05-03T07:22:05.514Z,0.80
2023-05-03T07:24:32.276Z,1.33
2023-05-03T07:26:59.194Z,1.25
2023-05-03T07:29:27.310Z,1.50
2023-05-03T07:31:54.410Z,1.30
2023-05-03T07:34:21.527Z,1.42
2023-05-03T07:36:48.374Z,1.38
2023-05-03T07:39:15.183Z,1.52
2023-05-03T07:41:41.892Z,1.10
2023-05-03T07:44:08.736Z,1.88
2023-05-03T07:46:35.834Z,1.00
2023-05-03T07:49:04.128Z,1.60
2023-05-03T07:51:35.072Z,1.45
2023-05-03T07:54:01.996Z,1.30
2023-05-03T07:56:28.845Z,1.35
2023-05-03T07:59:07.572Z,1.73
2023-05-03T08:01:35.906Z,1.58
2023-05-03T08:04:02.884Z,1.33
2023-05-03T08:06:29.846Z,1.02
2023-05-03T08:08:56.598Z,1.02
2023-05-03T08:11:23.507Z,1.30
2023-05-03T08:13:50.306Z,1.38
2023-05-03T08:16:17.191Z,1.05
2023-05-03T08:18:44.370Z,1.10
2023-05-03T08:21:12.375Z,0.98
2023-05-03T08:23:39.549Z,0.98
2023-05-03T08:26:09.364Z,1.10
2023-05-03T08:28:36.320Z,1.45
2023-05-03T08:31:04.923Z,1.77
2023-05-03T08:33:32.033Z,1.63
2023-05-03T08:35:58.775Z,1.08
2023-05-03T08:38:25.959Z,1.27
2023-05-03T08:40:55.454Z,0.82
2023-05-03T08:43:27.373Z,0.90
2023-05-03T08:45:54.083Z,0.85
2023-05-03T08:48:21.370Z,0.90
2023-05-03T08:50:51.649Z,0.73
2023-05-03T08:53:18.631Z,0.77
2023-05-03T08:55:45.722Z,1.20
2023-05-03T08:58:13.208Z,0.70
2023-05-03T09:00:44.991Z,0.98
2023-05-03T09:03:12.696Z,0.75
2023-05-03T09:05:40.795Z,0.70
2023-05-03T09:08:12.960Z,1.00
2023-05-03T09:10:42.004Z,0.80
2023-05-03T09:13:10.195Z,0.75
2023-05-03T09:15:37.417Z,0.95
2023-05-03T09:18:13.367Z,0.90
2023-05-03T09:20:41.871Z,0.88
2023-05-03T09:23:09.752Z,0.80
2023-05-03T09:25:51.529Z,0.73
2023-05-03T09:28:20.347Z,0.70
2023-05-03T09:30:48.528Z,1.38
2023-05-03T09:33:23.092Z,0.77
2023-05-03T09:36:01.511Z,0.98
2023-05-03T09:38:30.439Z,0.52
2023-05-03T09:40:58.056Z,1.05
2023-05-03T09:43:25.563Z,1.38
2023-05-03T09:45:52.463Z,0.70
2023-05-03T09:48:23.404Z,0.70
2023-05-03T09:50:51.235Z,0.68
2023-05-03T09:53:21.541Z,0.75
2023-05-03T09:55:50.963Z,0.85
2023-05-03T09:58:18.677Z,0.63
2023-05-03T10:00:46.585Z,0.70
2023-05-03T10:03:22.097Z,0.93
2023-05-03T10:05:51.240Z,0.65
2023-05-03T10:08:30.841Z,0.93
2023-05-03T10:10:58.463Z,1.08
2023-05-03T10:13:25.943Z,1.00
2023-05-03T10:15:59.086Z,1.20
2023-05-03T10:18:29.772Z,0.98
2023-05-03T10:21:09.913Z,1.08
2023-05-03T10:23:36.707Z,1.30
2023-05-03T10:26:07.165Z,1.08
2023-05-03T10:28:34.219Z,2.00
2023-05-03T10:31:02.166Z,0.82
2023-05-03T10:33:35.232Z,0.98
2023-05-03T10:36:07.318Z,1.30
2023-05-03T10:38:34.217Z,1.17
2023-05-03T10:41:04.028Z,0.98
2023-05-03T10:43:31.162Z,0.80
2023-05-03T10:46:05.597Z,1.02
2023-05-03T10:48:34.035Z,1.40
2023-05-03T10:51:37.435Z,1.00
2023-05-03T10:54:04.394Z,1.40
2023-05-03T10:56:32.372Z,1.95
2023-05-03T10:58:59.296Z,1.50
2023-05-03T11:01:27.992Z,1.95
2023-05-03T11:04:15.278Z,1.13
2023-05-03T11:06:42.186Z,1.35
2023-05-03T11:09:10.400Z,1.27
2023-05-03T11:11:41.316Z,1.40
2023-05-03T11:14:08.985Z,1.23
2023-05-03T11:16:37.146Z,0.95
2023-05-03T11:19:04.188Z,2.53
2023-05-03T11:21:31.408Z,1.33
2023-05-03T11:23:59.141Z,1.20
2023-05-03T11:26:26.610Z,1.40
2023-05-03T11:28:54.116Z,1.30
2023-05-03T11:31:22.575Z,1.23
2023-05-03T11:33:50.968Z,1.58
2023-05-03T11:36:17.753Z,1.25
2023-05-03T11:38:45.593Z,1.27
2023-05-03T11:41:17.489Z,1.20
2023-05-03T11:43:54.905Z,1.02
2023-05-03T11:46:32.732Z,1.02
2023-05-03T11:48:59.650Z,1.10
2023-05-03T11:51:27.755Z,0.75
2023-05-03T11:53:55.578Z,0.93
2023-05-03T11:56:22.888Z,1.10
2023-05-03T11:58:57.286Z,0.90
2023-05-03T12:01:27.168Z,1.10
2023-05-03T12:03:55.391Z,1.23
2023-05-03T12:06:24.029Z,1.17
2023-05-03T12:08:51.829Z,1.05
2023-05-03T12:11:21.105Z,1.13
2023-05-03T12:14:02.619Z,1.00
2023-05-03T12:16:47.150Z,1.00
2023-05-03T12:19:24.305Z,1.30
2023-05-03T12:22:04.795Z,1.08
2023-05-03T12:24:39.351Z,1.17
2023-05-03T12:27:08.615Z,0.90
2023-05-03T12:29:36.000Z,0.70
2023-05-03T12:32:04.333Z,1.05
2023-05-03T12:34:35.497Z,0.90
2023-05-03T12:37:05.817Z,0.90
2023-05-03T12:39:33.983Z,1.02
2023-05-03T12:44:34.936Z,1.10
2023-05-03T12:47:03.230Z,1.10
2023-05-03T12:49:30.788Z,0.80
2023-05-03T12:54:33.667Z,1.05
2023-05-03T12:57:08.165Z,0.95
2023-05-03T12:59:43.131Z,0.95
2023-05-03T13:07:15.126Z,0.88
2023-05-03T13:12:34.147Z,1.30
2023-05-03T13:15:05.135Z,0.93
2023-05-03T13:17:32.362Z,1.02
2023-05-03T13:19:59.580Z,0.65
2023-05-03T13:22:27.184Z,1.13
2023-05-03T13:24:54.072Z,0.75
2023-05-03T13:27:20.878Z,1.08
2023-05-03T13:29:49.380Z,0.90
2023-05-03T13:32:17.053Z,1.02
2023-05-03T13:34:44.117Z,0.95
2023-05-03T13:37:11.892Z,1.00
2023-05-03T13:39:38.816Z,1.02
2023-05-03T13:42:06.256Z,0.82
2023-05-03T13:44:33.186Z,1.17
2023-05-03T13:47:00.000Z,1.00
2023-05-03T13:49:26.846Z,1.15
2023-05-03T13:51:54.571Z,1.10
2023-05-03T13:54:21.521Z,1.05
2023-05-03T13:56:48.421Z,1.20
2023-05-03T13:59:16.615Z,0.70
2023-05-03T14:01:43.786Z,1.00
2023-05-03T14:04:10.904Z,1.00
2023-05-03T14:06:40.267Z,1.55
2023-05-03T14:09:08.997Z,1.70
2023-05-03T14:11:35.810Z,0.90
2023-05-03T14:14:03.202Z,1.35
2023-05-03T14:18:59.966Z,1.48
2023-05-03T14:21:29.116Z,1.00
2023-05-03T14:23:57.267Z,1.23
2023-05-03T14:26:24.303Z,1.25
2023-05-03T14:28:51.098Z,1.55
2023-05-03T14:31:17.900Z,0.70
2023-05-03T14:33:44.870Z,1.30
2023-05-03T14:36:11.869Z,1.10
2023-05-03T14:38:38.697Z,1.10
2023-05-03T14:41:05.862Z,1.38
2023-05-03T14:43:32.939Z,1.63
2023-05-03T14:46:00.421Z,1.25
2023-05-03T14:48:27.441Z,1.80
2023-05-03T14:50:54.832Z,1.30
2023-05-03T14:53:22.742Z,1.75
2023-05-03T14:55:50.134Z,1.42
2023-05-03T14:58:17.084Z,1.70
2023-05-03T15:00:43.998Z,1.73
2023-05-03T15:03:12.281Z,1.27
2023-05-03T15:05:44.418Z,1.73
2023-05-03T15:08:13.288Z,1.70
2023-05-03T15:10:40.682Z,1.77
2023-05-03T15:13:07.782Z,1.48
2023-05-03T15:15:34.901Z,2.13
2023-05-03T15:18:01.694Z,1.70
2023-05-03T15:20:28.692Z,1.33
2023-05-03T15:22:55.486Z,1.55
2023-05-03T15:25:22.284Z,2.03
2023-05-03T15:27:49.024Z,1.58
2023-05-03T15:30:17.303Z,1.67
2023-05-03T15:32:44.575Z,1.88
2023-05-03T15:35:11.931Z,1.50
2023-05-03T15:37:38.857Z,1.52
2023-05-03T15:40:09.284Z,1.92
2023-05-03T15:42:36.908Z,1.40
2023-05-03T15:45:05.333Z,1.38
2023-05-03T15:47:32.872Z,1.70
2023-05-03T15:49:59.832Z,1.73
2023-05-03T15:52:26.724Z,1.50
2023-05-03T15:54:55.661Z,1.38
2023-05-03T15:57:23.684Z,1.95
2023-05-03T15:59:50.517Z,1.58
2023-05-03T16:02:17.241Z,1.45
2023-05-03T16:04:44.410Z,1.50
2023-05-03T16:07:12.490Z,1.65
2023-05-03T16:09:39.189Z,2.13
2023-05-03T16:12:06.300Z,2.53
2023-05-03T16:14:33.103Z,1.77
2023-05-03T16:17:02.129Z,2.17
2023-05-03T16:19:29.193Z,2.08
2023-05-03T16:21:56.392Z,2.30
2023-05-03T16:24:23.524Z,1.33
2023-05-03T16:26:51.370Z,1.70
2023-05-03T16:29:18.280Z,1.60
2023-05-03T16:31:47.087Z,2.28
2023-05-03T16:34:14.349Z,1.65
2023-05-03T16:36:43.144Z,1.60
2023-05-03T16:39:14.168Z,2.10
2023-05-03T16:41:41.519Z,1.92
2023-05-03T16:44:08.668Z,1.65
2023-05-03T16:46:36.606Z,2.53
2023-05-03T16:49:04.529Z,1.48
2023-05-03T16:51:31.707Z,1.88
2023-05-03T16:53:59.794Z,1.88
2023-05-03T16:56:29.625Z,1.35
2023-05-03T16:58:56.903Z,1.77
2023-05-03T17:01:23.730Z,1.80
2023-05-03T17:03:50.526Z,1.98
2023-05-03T17:06:18.303Z,1.67
2023-05-03T17:08:45.564Z,1.75
2023-05-03T17:11:13.759Z,1.77
2023-05-03T17:13:40.801Z,1.70
2023-05-03T17:16:09.853Z,1.55
2023-05-03T17:18:37.870Z,1.48
2023-05-03T17:21:05.062Z,1.90
2023-05-03T17:23:35.749Z,1.77
2023-05-03T17:26:08.317Z,1.60
2023-05-03T17:28:35.467Z,1.73
2023-05-03T17:31:03.219Z,2.03
2023-05-03T17:33:30.367Z,1.67
2023-05-03T17:35:57.151Z,1.92
2023-05-03T17:38:24.811Z,2.35
2023-05-03T17:40:51.664Z,2.08
2023-05-03T17:43:18.647Z,1.73
2023-05-03T17:45:47.481Z,2.25
2023-05-03T17:48:14.820Z,2.25
2023-05-03T17:50:43.167Z,2.13
2023-05-03T17:53:10.070Z,1.65
2023-05-03T17:55:40.711Z,1.75
2023-05-03T17:58:09.431Z,1.70
2023-05-03T18:00:36.263Z,1.33
2023-05-03T18:03:03.185Z,2.10
2023-05-03T18:05:36.744Z,1.45
2023-05-03T18:08:03.972Z,1.90
2023-05-03T18:10:30.938Z,1.55
2023-05-03T18:12:57.928Z,1.77
2023-05-03T18:15:24.762Z,1.50
2023-05-03T18:17:51.799Z,1.80
2023-05-03T18:20:18.887Z,2.33
2023-05-03T18:22:45.630Z,1.40
2023-05-03T18:25:12.675Z,1.88
2023-05-03T18:27:39.918Z,2.08
2023-05-03T18:30:07.753Z,1.58
2023-05-03T18:32:35.048Z,2.10
2023-05-03T18:35:02.810Z,1.98
2023-05-03T18:37:29.739Z,2.10
2023-05-03T18:39:56.575Z,1.70
2023-05-03T18:42:23.602Z,1.85
2023-05-03T18:44:50.424Z,2.10
2023-05-03T18:47:20.955Z,2.97
2023-05-03T18:49:52.573Z,2.42
2023-05-03T18:52:23.249Z,2.10
2023-05-03T18:54:50.379Z,2.20
2023-05-03T18:57:17.579Z,1.98
2023-05-03T18:59:56.568Z,1.90
2023-05-03T19:02:30.709Z,2.17
2023-05-03T19:04:58.683Z,1.95
2023-05-03T19:07:25.669Z,2.95
2023-05-03T19:09:57.259Z,1.85
2023-05-03T19:12:24.179Z,1.95
2023-05-03T19:14:51.160Z,1.90
2023-05-03T19:17:18.119Z,2.58
2023-05-03T19:19:45.259Z,1.70
2023-05-03T19:22:12.232Z,1.95
2023-05-03T19:24:39.831Z,2.53
2023-05-03T19:27:06.795Z,2.38
2023-05-03T19:29:34.198Z,2.55
2023-05-03T19:32:01.066Z,2.40
2023-05-03T19:34:30.898Z,2.88
2023-05-03T19:36:57.705Z,2.20
2023-05-03T19:39:24.980Z,2.58
2023-05-03T19:41:53.235Z,2.28
2023-05-03T19:44:20.116Z,2.67
2023-05-03T19:46:46.977Z,2.40
2023-05-03T19:49:14.645Z,2.83
2023-05-03T19:51:41.373Z,2.22
2023-05-03T19:54:08.403Z,2.97
2023-05-03T19:56:35.354Z,3.08
2023-05-03T19:59:02.216Z,2.85
2023-05-03T20:01:29.224Z,2.38
2023-05-03T20:03:56.588Z,2.53
2023-05-03T20:06:23.585Z,2.45
2023-05-03T20:08:51.305Z,2.55
2023-05-03T20:11:21.256Z,2.65
2023-05-03T20:13:48.174Z,2.47
2023-05-03T20:16:15.148Z,3.30
2023-05-03T20:18:42.794Z,3.05
2023-05-03T20:21:09.664Z,2.30
2023-05-03T20:23:36.470Z,2.45
2023-05-03T20:26:03.267Z,3.50
2023-05-03T20:28:32.436Z,2.83
2023-05-03T20:30:59.218Z,3.15
2023-05-03T20:33:26.009Z,3.10
2023-05-03T20:35:53.241Z,2.80
2023-05-03T20:38:20.254Z,3.00
2023-05-03T20:40:47.013Z,3.83
2023-05-03T20:43:14.062Z,3.78
2023-05-03T20:45:40.817Z,3.78
2023-05-03T20:48:08.011Z,4.47
2023-05-03T20:50:34.952Z,4.55
2023-05-03T20:53:01.689Z,4.75
2023-05-03T20:55:28.402Z,5.15
2023-05-03T20:57:55.293Z,6.38
2023-05-03T21:00:22.291Z,5.78
2023-05-03T21:02:54.500Z,5.18
2023-05-03T21:05:21.894Z,5.13
2023-05-03T21:07:48.910Z,4.97
2023-05-03T21:10:15.807Z,5.85
2023-05-03T21:12:42.549Z,8.00
2023-05-03T21:15:09.772Z,7.85
2023-05-03T21:17:36.836Z,6.00
2023-05-03T21:20:04.164Z,3.75
2023-05-03T21:22:31.187Z,4.13
2023-05-03T21:24:57.955Z,4.60
2023-05-03T21:27:24.714Z,3.63
2023-05-03T21:29:51.649Z,3.95
2023-05-03T21:32:18.389Z,4.20
2023-05-03T21:34:45.135Z,4.35
2023-05-03T21:37:11.968Z,4.93
2023-05-03T21:39:38.714Z,4.22
2023-05-03T21:42:05.472Z,4.00
2023-05-03T21:44:32.210Z,3.78
2023-05-03T21:46:59.346Z,4.10
2023-05-03T21:49:26.236Z,4.28
2023-05-03T21:51:53.058Z,3.55
2023-05-03T21:54:19.875Z,4.40
2023-05-03T21:56:46.646Z,4.65
2023-05-03T21:59:13.475Z,3.90
2023-05-03T22:01:40.382Z,4.85
2023-05-03T22:04:07.255Z,4.70
2023-05-03T22:06:34.116Z,5.13
2023-05-03T22:09:00.862Z,5.05
2023-05-03T22:11:27.547Z,6.18
2023-05-03T22:14:06.576Z,5.63
2023-05-03T22:16:35.193Z,5.95
2023-05-03T22:19:02.048Z,5.93
2023-05-03T22:21:28.993Z,5.20
2023-05-03T22:23:55.664Z,5.82
2023-05-03T22:26:22.436Z,5.38
2023-05-03T22:28:49.407Z,5.38
2023-05-03T22:31:16.415Z,6.18
2023-05-03T22:33:44.954Z,6.10
2023-05-03T22:36:12.900Z,5.28
2023-05-03T22:38:42.060Z,6.45
2023-05-03T22:41:09.807Z,5.97
2023-05-03T22:43:37.011Z,6.63
2023-05-03T22:46:04.082Z,6.70
2023-05-03T22:48:32.570Z,7.30
2023-05-03T22:50:59.965Z,6.72
2023-05-03T22:53:26.797Z,6.53
2023-05-03T22:55:58.003Z,8.60
2023-05-03T22:58:25.769Z,6.85
2023-05-03T23:00:53.405Z,6.40
2023-05-03T23:03:21.439Z,6.88
2023-05-03T23:05:49.305Z,7.22
2023-05-03T23:08:16.046Z,7.00
2023-05-03T23:10:42.834Z,7.55
2023-05-03T23:13:09.868Z,7.35
2023-05-03T23:15:37.699Z,7.50
2023-05-03T23:18:05.221Z,7.80
2023-05-03T23:20:32.083Z,8.02
2023-05-03T23:22:58.863Z,9.90
2023-05-03T23:25:26.088Z,9.65
2023-05-03T23:27:52.835Z,8.35
2023-05-03T23:30:19.902Z,7.70
2023-05-03T23:32:47.014Z,6.57
2023-05-03T23:35:15.300Z,5.47
2023-05-03T23:37:41.948Z,5.93
2023-05-03T23:40:09.156Z,6.90
2023-05-03T23:42:36.075Z,6.18
2023-05-03T23:45:02.867Z,6.40
2023-05-03T23:47:29.720Z,6.70
2023-05-03T23:49:56.820Z,5.82
2023-05-03T23:52:23.586Z,7.03
2023-05-03T23:54:50.240Z,6.93
2023-05-03T23:57:17.070Z,6.78
2023-05-03T23:59:44.239Z,7.07
